Aurora, Colorado
Current Conditions -  °F | °C
As of 10:58 PM on Tuesday 27 Jan 2015 (Local Time) from KBKF Reporting Station
Few Clouds Few Clouds  
Wind Chill: 41°   Ceiling: Unl
Heat Index: 46°   Visibility: 10mi
Dew Point: 26°   Wind: 9mph
Humidity: 46%   Direction: 180°S
Pressure: 30.02"   Gusts: NA
Location:  39.69°N, 104.86°W
Report Text: KBKF 280558Z 18008KT 10SM FEW220 08/M03 A3002 RMK AO2A SLP119 T00751034 10144 20069 58002
Loading
Personal Weather Stations






























Interactive Weather Map New forecast layout! Learn more

10-Day Weather Forecast

Advertisements
Track Severe Weather on mobile